createdAt,value
2024-02-03T00:01:33.100Z,101900.59
2024-02-03T00:03:59.741Z,101900.31
2024-02-03T00:06:26.477Z,101894.38
2024-02-03T00:08:53.289Z,101883.59
2024-02-03T00:11:19.731Z,101879.63
2024-02-03T00:13:46.201Z,101877.81
2024-02-03T00:16:12.970Z,101878.44
2024-02-03T00:18:39.551Z,101897.53
2024-02-03T00:21:06.132Z,101893.59
2024-02-03T00:23:32.667Z,101891.19
2024-02-03T00:25:59.082Z,101880.88
2024-02-03T00:28:25.512Z,101880.25
2024-02-03T00:30:51.992Z,101868.38
2024-02-03T00:33:18.616Z,101875.22
2024-02-03T00:35:45.159Z,101880.69
2024-02-03T00:38:12.647Z,101880.56
2024-02-03T00:40:39.088Z,101879.63
2024-02-03T00:43:05.546Z,101875.38
2024-02-03T00:45:32.116Z,101880.53
2024-02-03T00:47:58.711Z,101876.47
2024-02-03T00:50:25.286Z,101884.19
2024-02-03T00:52:51.793Z,101878.00
2024-02-03T00:55:18.263Z,101881.03
2024-02-03T00:57:45.088Z,101880.25
2024-02-03T01:00:13.440Z,101874.94
2024-02-03T01:02:42.301Z,101878.44
2024-02-03T01:05:08.898Z,101883.91
2024-02-03T01:07:35.441Z,101892.09
2024-02-03T01:10:01.986Z,101891.94
2024-02-03T01:12:28.520Z,101892.56
2024-02-03T01:14:55.062Z,101889.50
2024-02-03T01:17:21.963Z,101892.38
2024-02-03T01:19:48.599Z,101883.75
2024-02-03T01:22:15.111Z,101905.00
2024-02-03T01:24:41.629Z,101890.19
2024-02-03T01:27:08.124Z,101886.34
2024-02-03T01:29:34.850Z,101895.34
2024-02-03T01:32:01.266Z,101898.19
2024-02-03T01:34:27.898Z,101893.50
2024-02-03T01:36:54.446Z,101897.47
2024-02-03T01:39:20.954Z,101904.91
2024-02-03T01:41:47.361Z,101886.56
2024-02-03T01:44:13.774Z,101888.06
2024-02-03T01:46:40.612Z,101883.78
2024-02-03T01:49:07.413Z,101884.56
2024-02-03T01:51:35.134Z,101878.47
2024-02-03T01:54:02.077Z,101886.63
2024-02-03T01:56:28.676Z,101884.81
2024-02-03T01:58:55.138Z,101883.16
2024-02-03T02:01:21.727Z,101886.09
2024-02-03T02:03:48.241Z,101877.28
2024-02-03T02:06:14.789Z,101874.09
2024-02-03T02:08:41.265Z,101885.78
2024-02-03T02:11:07.809Z,101888.22
2024-02-03T02:13:34.398Z,101886.69
2024-02-03T02:16:00.874Z,101879.56
2024-02-03T02:18:27.570Z,101879.06
2024-02-03T02:20:54.191Z,101864.81
2024-02-03T02:23:20.658Z,101877.56
2024-02-03T02:25:47.230Z,101868.19
2024-02-03T02:28:13.677Z,101868.47
2024-02-03T02:30:41.243Z,101855.09
2024-02-03T02:33:10.224Z,101869.97
2024-02-03T02:35:37.948Z,101860.88
2024-02-03T02:38:04.635Z,101863.63
2024-02-03T02:40:31.056Z,101861.78
2024-02-03T02:42:57.489Z,101854.53
2024-02-03T02:45:23.917Z,101854.53
2024-02-03T02:47:50.426Z,101849.38
2024-02-03T02:50:17.118Z,101834.78
2024-02-03T02:52:43.571Z,101848.72
2024-02-03T02:55:10.134Z,101842.97
2024-02-03T02:57:36.591Z,101838.13
2024-02-03T03:00:03.961Z,101839.78
2024-02-03T03:02:30.431Z,101838.88
2024-02-03T03:04:56.979Z,101833.56
2024-02-03T03:07:25.058Z,101833.25
2024-02-03T03:09:51.779Z,101837.50
2024-02-03T03:12:18.266Z,101840.84
2024-02-03T03:14:44.685Z,101838.41
2024-02-03T03:17:11.354Z,101838.09
2024-02-03T03:19:38.592Z,101829.63
2024-02-03T03:22:06.892Z,101820.66
2024-02-03T03:24:33.419Z,101828.09
2024-02-03T03:26:59.900Z,101826.88
2024-02-03T03:29:26.396Z,101831.13
2024-02-03T03:31:52.856Z,101826.41
2024-02-03T03:34:19.406Z,101828.06
2024-02-03T03:36:46.039Z,101825.63
2024-02-03T03:39:12.569Z,101821.38
2024-02-03T03:41:38.997Z,101815.47
2024-02-03T03:44:05.538Z,101811.94
2024-02-03T03:46:31.952Z,101812.41
2024-02-03T03:48:58.408Z,101819.88
2024-02-03T03:51:24.894Z,101823.38
2024-02-03T03:53:51.712Z,101811.19
2024-02-03T03:56:18.138Z,101825.97
2024-02-03T03:58:44.577Z,101828.69
2024-02-03T04:01:11.550Z,101814.72
2024-02-03T04:03:38.281Z,101813.50
2024-02-03T04:06:05.445Z,101807.72
2024-02-03T04:08:32.021Z,101809.41
2024-02-03T04:10:58.469Z,101808.03
2024-02-03T04:13:24.911Z,101812.13
2024-02-03T04:15:51.469Z,101809.88
2024-02-03T04:18:18.117Z,101813.66
2024-02-03T04:20:44.672Z,101811.53
2024-02-03T04:23:11.104Z,101806.84
2024-02-03T04:25:37.726Z,101812.75
2024-02-03T04:28:04.712Z,101809.88
2024-02-03T04:30:31.200Z,101810.00
2024-02-03T04:32:57.694Z,101812.16
2024-02-03T04:35:24.507Z,101811.72
2024-02-03T04:37:51.017Z,101808.94
2024-02-03T04:40:17.519Z,101807.16
2024-02-03T04:42:44.042Z,101798.31
2024-02-03T04:45:10.951Z,101806.22
2024-02-03T04:47:37.637Z,101804.84
2024-02-03T04:50:05.470Z,101797.44
2024-02-03T04:52:32.103Z,101800.28
2024-02-03T04:54:58.536Z,101791.59
2024-02-03T04:57:24.984Z,101790.59
2024-02-03T04:59:51.445Z,101802.88
2024-02-03T05:02:17.850Z,101796.81
2024-02-03T05:04:44.322Z,101796.03
2024-02-03T05:07:10.851Z,101793.94
2024-02-03T05:09:37.480Z,101798.34
2024-02-03T05:12:04.185Z,101796.50
2024-02-03T05:14:30.669Z,101804.72
2024-02-03T05:16:57.094Z,101809.41
2024-02-03T05:19:24.897Z,101806.63
2024-02-03T05:21:51.567Z,101802.91
2024-02-03T05:24:18.029Z,101799.25
2024-02-03T05:26:44.538Z,101803.00
2024-02-03T05:29:10.965Z,101806.84
2024-02-03T05:31:38.270Z,101812.00
2024-02-03T05:34:04.947Z,101810.16
2024-02-03T05:36:31.932Z,101799.41
2024-02-03T05:38:58.388Z,101808.03
2024-02-03T05:41:24.830Z,101804.72
2024-02-03T05:43:51.244Z,101797.72
2024-02-03T05:46:17.694Z,101809.53
2024-02-03T05:48:44.195Z,101823.50
2024-02-03T05:51:11.832Z,101814.97
2024-02-03T05:53:38.325Z,101828.25
2024-02-03T05:56:05.043Z,101815.91
2024-02-03T05:58:32.140Z,101816.06
2024-02-03T06:00:58.795Z,101806.81
2024-02-03T06:03:28.357Z,101800.91
2024-02-03T06:06:12.425Z,101792.84
2024-02-03T06:08:42.519Z,101790.25
2024-02-03T06:11:09.234Z,101798.91
2024-02-03T06:13:35.731Z,101796.78
2024-02-03T06:16:03.639Z,101809.41
2024-02-03T06:18:30.219Z,101809.06
2024-02-03T06:20:56.850Z,101803.78
2024-02-03T06:23:23.276Z,101795.00
2024-02-03T06:25:49.708Z,101792.84
2024-02-03T06:28:16.162Z,101791.50
2024-02-03T06:30:42.667Z,101787.41
2024-02-03T06:33:09.283Z,101791.16
2024-02-03T06:35:36.344Z,101792.56
2024-02-03T06:38:03.467Z,101783.41
2024-02-03T06:40:29.876Z,101783.00
2024-02-03T06:42:56.377Z,101779.81
2024-02-03T06:45:23.505Z,101789.84
2024-02-03T06:47:50.176Z,101792.25
2024-02-03T06:50:16.760Z,101798.00
2024-02-03T06:52:43.186Z,101794.09
2024-02-03T06:55:10.225Z,101789.53
2024-02-03T06:57:36.867Z,101796.81
2024-02-03T07:00:03.952Z,101796.22
2024-02-03T07:02:30.473Z,101810.63
2024-02-03T07:04:56.976Z,101800.31
2024-02-03T07:07:23.745Z,101808.19
2024-02-03T07:09:50.332Z,101808.66
2024-02-03T07:12:16.896Z,101801.19
2024-02-03T07:14:43.462Z,101791.34
2024-02-03T07:17:09.933Z,101790.41
2024-02-03T07:19:36.488Z,101789.53
2024-02-03T07:22:03.037Z,101792.09
2024-02-03T07:24:30.269Z,101794.69
2024-02-03T07:26:56.716Z,101798.44
2024-02-03T07:29:23.136Z,101797.69
2024-02-03T07:31:49.601Z,101792.84
2024-02-03T07:34:16.244Z,101805.28
2024-02-03T07:36:42.788Z,101811.38
2024-02-03T07:39:09.849Z,101804.72
2024-02-03T07:41:36.488Z,101812.28
2024-02-03T07:44:02.880Z,101810.78
2024-02-03T07:46:29.296Z,101814.41
2024-02-03T07:48:55.826Z,101808.66
2024-02-03T07:51:22.364Z,101813.50
2024-02-03T07:53:48.847Z,101808.94
2024-02-03T07:56:15.334Z,101804.72
2024-02-03T07:58:41.750Z,101806.84
2024-02-03T08:01:08.278Z,101817.16
2024-02-03T08:03:35.035Z,101822.63
2024-02-03T08:06:01.904Z,101812.28
2024-02-03T08:08:28.576Z,101810.91
2024-02-03T08:10:55.007Z,101820.78
2024-02-03T08:13:21.473Z,101809.56
2024-02-03T08:15:47.940Z,101798.00
2024-02-03T08:18:14.560Z,101794.06
2024-02-03T08:20:41.081Z,101782.53
2024-02-03T08:23:07.579Z,101803.19
2024-02-03T08:25:33.989Z,101798.16
2024-02-03T08:28:00.612Z,101805.31
2024-02-03T08:30:27.142Z,101800.91
2024-02-03T08:32:53.719Z,101804.09
2024-02-03T08:35:20.322Z,101808.78
2024-02-03T08:37:46.901Z,101794.66
2024-02-03T08:40:14.472Z,101802.88
2024-02-03T08:42:41.031Z,101797.56
2024-02-03T08:45:07.809Z,101801.97
2024-02-03T08:47:34.316Z,101806.81
2024-02-03T08:50:00.766Z,101815.94
2024-02-03T08:52:27.177Z,101820.78
2024-02-03T08:54:53.667Z,101820.16
2024-02-03T08:57:20.180Z,101820.16
2024-02-03T08:59:46.759Z,101818.03
2024-02-03T09:02:13.404Z,101825.03
2024-02-03T09:04:39.892Z,101823.53
2024-02-03T09:07:06.474Z,101835.97
2024-02-03T09:09:32.936Z,101831.88
2024-02-03T09:11:59.574Z,101827.63
2024-02-03T09:14:25.997Z,101833.84
2024-02-03T09:16:52.638Z,101838.41
2024-02-03T09:19:19.206Z,101834.44
2024-02-03T09:21:45.735Z,101841.59
2024-02-03T09:24:12.259Z,101832.00
2024-02-03T09:26:40.303Z,101830.19
2024-02-03T09:29:08.397Z,101828.81
2024-02-03T09:31:35.504Z,101826.84
2024-02-03T09:34:06.612Z,101824.09
2024-02-03T09:36:33.547Z,101825.03
2024-02-03T09:39:00.152Z,101831.84
2024-02-03T09:41:27.806Z,101833.69
2024-02-03T09:43:54.609Z,101837.63
2024-02-03T09:46:21.074Z,101835.50
2024-02-03T09:48:47.689Z,101842.19
2024-02-03T09:51:14.292Z,101840.81
2024-02-03T09:53:40.744Z,101839.47
2024-02-03T09:56:08.209Z,101842.19
2024-02-03T09:58:34.670Z,101846.28
2024-02-03T10:01:02.153Z,101842.63
2024-02-03T10:03:28.659Z,101847.66
2024-02-03T10:06:04.778Z,101835.50
2024-02-03T10:08:31.236Z,101837.19
2024-02-03T10:10:58.300Z,101839.28
2024-02-03T10:13:25.021Z,101844.94
2024-02-03T10:16:00.340Z,101855.41
2024-02-03T10:18:27.084Z,101849.47
2024-02-03T10:20:53.551Z,101854.75
2024-02-03T10:23:20.167Z,101858.09
2024-02-03T10:25:46.796Z,101859.03
2024-02-03T10:28:14.458Z,101858.75
2024-02-03T10:30:40.977Z,101863.00
2024-02-03T10:33:08.169Z,101852.78
2024-02-03T10:35:36.053Z,101843.69
2024-02-03T10:38:02.722Z,101836.22
2024-02-03T10:40:33.370Z,101834.72
2024-02-03T10:43:02.697Z,101839.13
2024-02-03T10:45:31.453Z,101827.56
2024-02-03T10:47:59.947Z,101831.81
2024-02-03T10:50:35.201Z,101838.38
2024-02-03T10:53:14.475Z,101853.25
2024-02-03T10:55:43.126Z,101842.03
2024-02-03T10:58:10.365Z,101844.25
2024-02-03T11:00:36.927Z,101837.44
2024-02-03T11:03:03.961Z,101841.53
2024-02-03T11:05:31.059Z,101838.66
2024-02-03T11:08:11.554Z,101842.59
2024-02-03T11:10:38.847Z,101841.66
2024-02-03T11:13:22.375Z,101839.28
2024-02-03T11:15:49.128Z,101833.91
2024-02-03T11:18:16.302Z,101836.31
2024-02-03T11:20:43.105Z,101825.50
2024-02-03T11:23:14.258Z,101822.78
2024-02-03T11:25:44.898Z,101816.72
2024-02-03T11:28:12.239Z,101814.94
2024-02-03T11:30:38.926Z,101818.50
2024-02-03T11:33:06.742Z,101816.72
2024-02-03T11:35:34.428Z,101814.88
2024-02-03T11:38:08.552Z,101817.47
2024-02-03T11:40:45.092Z,101817.28
2024-02-03T11:43:14.694Z,101818.50
2024-02-03T11:45:46.602Z,101814.84
2024-02-03T11:48:13.698Z,101813.94
2024-02-03T11:50:41.072Z,101820.66
2024-02-03T11:53:07.697Z,101813.81
2024-02-03T11:55:35.445Z,101807.84
2024-02-03T11:58:01.911Z,101795.72
2024-02-03T12:00:28.352Z,101803.31
2024-02-03T12:02:54.890Z,101801.78
2024-02-03T12:05:21.432Z,101808.50
2024-02-03T12:07:48.109Z,101809.06
2024-02-03T12:10:14.649Z,101803.81
2024-02-03T12:12:41.860Z,101805.13
2024-02-03T12:15:10.141Z,101796.81
2024-02-03T12:17:36.754Z,101802.25
2024-02-03T12:20:03.796Z,101810.59
2024-02-03T12:22:30.826Z,101804.66
2024-02-03T12:24:57.569Z,101801.78
2024-02-03T12:27:25.068Z,101793.00
2024-02-03T12:29:51.688Z,101784.16
2024-02-03T12:32:18.410Z,101779.88
2024-02-03T12:34:44.931Z,101780.34
2024-02-03T12:37:11.531Z,101781.69
2024-02-03T12:39:38.391Z,101773.16
2024-02-03T12:42:05.074Z,101769.66
2024-02-03T12:44:31.496Z,101774.69
2024-02-03T12:46:57.909Z,101774.38
2024-02-03T12:49:24.466Z,101774.41
2024-02-03T12:51:51.549Z,101769.53
2024-02-03T12:54:18.139Z,101766.66
2024-02-03T12:56:44.679Z,101764.63
2024-02-03T12:59:11.093Z,101768.03
2024-02-03T13:01:37.561Z,101755.25
2024-02-03T13:04:04.199Z,101773.16
2024-02-03T13:06:30.709Z,101763.88
2024-02-03T13:08:57.196Z,101768.63
2024-02-03T13:11:23.663Z,101764.09
2024-02-03T13:13:50.085Z,101757.34
2024-02-03T13:16:16.754Z,101768.31
2024-02-03T13:18:43.342Z,101761.59
2024-02-03T13:21:09.822Z,101762.69
2024-02-03T13:23:38.943Z,101756.56
2024-02-03T13:26:05.914Z,101766.75
2024-02-03T13:28:32.364Z,101759.59
2024-02-03T13:30:58.917Z,101759.44
2024-02-03T13:33:25.496Z,101754.69
2024-02-03T13:35:54.892Z,101753.06
2024-02-03T13:38:21.402Z,101755.03
2024-02-03T13:40:48.470Z,101756.41
2024-02-03T13:43:15.578Z,101749.44
2024-02-03T13:45:42.087Z,101742.44
2024-02-03T13:48:08.700Z,101746.22
2024-02-03T13:50:35.232Z,101747.91
2024-02-03T13:53:02.173Z,101744.06
2024-02-03T13:55:30.859Z,101728.41
2024-02-03T13:57:57.409Z,101738.91
2024-02-03T14:00:24.161Z,101733.94
2024-02-03T14:02:50.944Z,101730.09
2024-02-03T14:05:17.437Z,101731.34
2024-02-03T14:07:43.924Z,101738.03
2024-02-03T14:10:10.506Z,101730.88
2024-02-03T14:12:37.060Z,101745.72
2024-02-03T14:15:04.007Z,101731.50
2024-02-03T14:17:30.478Z,101726.63
2024-02-03T14:19:57.031Z,101730.13
2024-02-03T14:22:23.555Z,101729.22
2024-02-03T14:24:50.052Z,101727.69
2024-02-03T14:27:16.525Z,101729.81
2024-02-03T14:29:42.931Z,101729.47
2024-02-03T14:32:09.417Z,101726.78
2024-02-03T14:34:36.078Z,101734.84
2024-02-03T14:37:02.656Z,101733.81
2024-02-03T14:39:31.724Z,101730.56
2024-02-03T14:41:59.398Z,101732.38
2024-02-03T14:44:25.932Z,101733.94
2024-02-03T14:46:52.398Z,101728.91
2024-02-03T14:49:19.223Z,101728.59
2024-02-03T14:51:45.867Z,101732.09
2024-02-03T14:54:12.443Z,101742.44
2024-02-03T14:56:38.933Z,101732.38
2024-02-03T14:59:05.379Z,101736.03
2024-02-03T15:01:31.860Z,101737.56
2024-02-03T15:03:58.983Z,101735.44
2024-02-03T15:06:25.565Z,101726.34
2024-02-03T15:08:52.065Z,101737.28
2024-02-03T15:11:18.544Z,101726.94
2024-02-03T15:13:44.967Z,101732.28
2024-02-03T15:16:11.376Z,101735.66
2024-02-03T15:18:37.998Z,101725.44
2024-02-03T15:21:04.787Z,101733.06
2024-02-03T15:23:31.345Z,101729.41
2024-02-03T15:25:57.828Z,101740.41
2024-02-03T15:28:26.855Z,101740.03
2024-02-03T15:30:55.382Z,101737.31
2024-02-03T15:33:22.128Z,101738.22
2024-02-03T15:35:48.730Z,101738.22
2024-02-03T15:38:15.217Z,101746.41
2024-02-03T15:40:41.667Z,101744.16
2024-02-03T15:43:08.230Z,101743.69
2024-02-03T15:45:34.750Z,101752.88
2024-02-03T15:48:01.348Z,101751.16
2024-02-03T15:50:29.159Z,101752.94
2024-02-03T15:52:55.680Z,101759.19
2024-02-03T15:55:22.357Z,101755.53
2024-02-03T15:57:48.869Z,101768.47
2024-02-03T16:00:18.298Z,101767.91
2024-02-03T16:02:44.873Z,101760.16
2024-02-03T16:05:11.381Z,101764.03
2024-02-03T16:07:37.913Z,101759.63
2024-02-03T16:10:05.218Z,101762.69
2024-02-03T16:12:32.367Z,101759.47
2024-02-03T16:14:58.809Z,101756.75
2024-02-03T16:17:25.768Z,101754.50
2024-02-03T16:19:52.464Z,101756.81
2024-02-03T16:22:19.343Z,101762.25
2024-02-03T16:24:45.999Z,101759.34
2024-02-03T16:27:12.529Z,101765.44
2024-02-03T16:29:38.944Z,101764.84
2024-02-03T16:32:05.415Z,101758.31
2024-02-03T16:34:32.028Z,101752.94
2024-02-03T16:36:58.932Z,101767.72
2024-02-03T16:39:26.982Z,101760.88
2024-02-03T16:41:54.498Z,101744.63
2024-02-03T16:44:20.900Z,101754.97
2024-02-03T16:46:47.308Z,101756.81
2024-02-03T16:49:13.754Z,101760.28
2024-02-03T16:51:40.314Z,101764.56
2024-02-03T16:54:06.750Z,101754.38
2024-02-03T16:56:33.158Z,101754.69
2024-02-03T16:58:59.531Z,101754.84
2024-02-03T17:01:26.053Z,101756.81
2024-02-03T17:03:53.416Z,101738.72
2024-02-03T17:06:30.441Z,101740.22
2024-02-03T17:08:57.005Z,101746.47
2024-02-03T17:11:23.408Z,101753.91
2024-02-03T17:13:49.787Z,101750.22
2024-02-03T17:16:19.746Z,101748.84
2024-02-03T17:18:46.365Z,101751.28
2024-02-03T17:21:12.928Z,101754.03
2024-02-03T17:23:39.359Z,101752.19
2024-02-03T17:26:06.401Z,101749.13
2024-02-03T17:28:32.920Z,101756.75
2024-02-03T17:30:59.326Z,101759.19
2024-02-03T17:33:26.126Z,101759.38
2024-02-03T17:35:52.642Z,101763.28
2024-02-03T17:38:19.072Z,101762.81
2024-02-03T17:40:45.501Z,101754.38
2024-02-03T17:43:12.052Z,101753.53
2024-02-03T17:45:38.559Z,101746.66
2024-02-03T17:48:05.258Z,101753.53
2024-02-03T17:50:34.375Z,101754.97
2024-02-03T17:53:02.189Z,101750.97
2024-02-03T17:55:28.640Z,101754.91
2024-02-03T17:57:55.257Z,101754.78
2024-02-03T18:00:22.054Z,101762.59
2024-02-03T18:02:48.580Z,101756.75
2024-02-03T18:05:18.807Z,101760.28
2024-02-03T18:07:45.365Z,101747.63
2024-02-03T18:10:11.841Z,101752.88
2024-02-03T18:12:38.309Z,101755.22
2024-02-03T18:15:05.183Z,101752.47
2024-02-03T18:17:31.597Z,101744.59
2024-02-03T18:19:58.131Z,101742.59
2024-02-03T18:22:25.007Z,101746.00
2024-02-03T18:24:51.498Z,101748.56
2024-02-03T18:27:18.011Z,101750.22
2024-02-03T18:29:44.438Z,101748.66
2024-02-03T18:32:10.838Z,101750.97
2024-02-03T18:34:37.387Z,101759.34
2024-02-03T18:37:04.244Z,101757.34
2024-02-03T18:39:30.795Z,101758.84
2024-02-03T18:41:57.217Z,101759.09
2024-02-03T18:44:23.639Z,101761.91
2024-02-03T18:46:50.187Z,101751.97
2024-02-03T18:49:16.750Z,101748.50
2024-02-03T18:51:43.337Z,101748.66
2024-02-03T18:54:09.876Z,101748.97
2024-02-03T18:56:36.331Z,101748.03
2024-02-03T18:59:02.750Z,101745.09
2024-02-03T19:01:29.443Z,101749.13
2024-02-03T19:03:59.673Z,101752.72
2024-02-03T19:06:29.652Z,101765.50
2024-02-03T19:08:57.437Z,101758.84
2024-02-03T19:11:24.295Z,101751.84
2024-02-03T19:13:50.721Z,101759.44
2024-02-03T19:16:17.176Z,101750.63
2024-02-03T19:18:43.677Z,101761.59
2024-02-03T19:21:13.321Z,101757.63
2024-02-03T19:23:41.137Z,101760.06
2024-02-03T19:26:09.392Z,101763.69
2024-02-03T19:28:35.831Z,101761.56
2024-02-03T19:31:02.269Z,101761.09
2024-02-03T19:33:28.811Z,101756.13
2024-02-03T19:35:55.288Z,101778.63
2024-02-03T19:38:21.683Z,101774.47
2024-02-03T19:40:50.296Z,101779.19
2024-02-03T19:43:18.383Z,101780.69
2024-02-03T19:45:44.940Z,101780.94
2024-02-03T19:48:11.555Z,101787.44
2024-02-03T19:50:38.351Z,101773.06
2024-02-03T19:53:06.306Z,101773.53
2024-02-03T19:55:33.631Z,101777.06
2024-02-03T19:58:00.529Z,101771.56
2024-02-03T20:00:27.745Z,101756.66
2024-02-03T20:02:54.246Z,101766.38
2024-02-03T20:05:20.801Z,101758.66
2024-02-03T20:07:47.495Z,101764.63
2024-02-03T20:10:15.554Z,101766.00
2024-02-03T20:12:42.251Z,101766.72
2024-02-03T20:15:09.135Z,101764.97
2024-02-03T20:17:35.665Z,101765.78
2024-02-03T20:20:02.619Z,101750.28
2024-02-03T20:22:29.358Z,101751.75
2024-02-03T20:24:56.019Z,101751.00
2024-02-03T20:27:22.617Z,101749.03
2024-02-03T20:29:49.122Z,101749.03
2024-02-03T20:32:15.645Z,101752.53
2024-02-03T20:34:43.970Z,101760.34
2024-02-03T20:37:10.703Z,101757.63
2024-02-03T20:39:38.692Z,101746.03
2024-02-03T20:42:05.619Z,101733.94
2024-02-03T20:44:32.067Z,101727.47
2024-02-03T20:46:58.591Z,101721.50
2024-02-03T20:49:26.813Z,101740.53
2024-02-03T20:51:53.603Z,101750.13
2024-02-03T20:54:20.307Z,101748.16
2024-02-03T20:56:46.923Z,101740.88
2024-02-03T20:59:14.564Z,101728.09
2024-02-03T21:01:41.158Z,101722.16
2024-02-03T21:04:09.949Z,101725.22
2024-02-03T21:06:39.305Z,101728.28
2024-02-03T21:09:15.840Z,101718.22
2024-02-03T21:11:46.394Z,101718.09
2024-02-03T21:14:14.841Z,101718.69
2024-02-03T21:16:41.483Z,101718.34
2024-02-03T21:19:08.089Z,101716.41
2024-02-03T21:21:39.377Z,101720.53
2024-02-03T21:24:06.127Z,101708.44
2024-02-03T21:26:32.835Z,101712.09
2024-02-03T21:28:59.686Z,101698.66
2024-02-03T21:31:27.006Z,101692.75
2024-02-03T21:33:53.592Z,101681.81
2024-02-03T21:36:20.657Z,101676.03
2024-02-03T21:38:47.650Z,101659.88
2024-02-03T21:41:14.139Z,101673.03
2024-02-03T21:43:40.693Z,101670.56
2024-02-03T21:46:07.500Z,101673.03
2024-02-03T21:48:34.308Z,101672.94
2024-02-03T21:51:00.895Z,101673.91
2024-02-03T21:53:27.323Z,101667.63
2024-02-03T21:55:54.046Z,101661.06
2024-02-03T21:58:21.024Z,101665.31
2024-02-03T22:00:49.720Z,101652.19
2024-02-03T22:03:16.513Z,101656.81
2024-02-03T22:05:43.116Z,101654.00
2024-02-03T22:08:09.674Z,101650.09
2024-02-03T22:10:36.133Z,101652.97
2024-02-03T22:13:02.658Z,101655.13
2024-02-03T22:15:29.391Z,101651.00
2024-02-03T22:17:58.948Z,101641.44
2024-02-03T22:20:26.026Z,101641.69
2024-02-03T22:22:53.288Z,101640.03
2024-02-03T22:25:19.754Z,101640.81
2024-02-03T22:27:46.489Z,101637.94
2024-02-03T22:30:13.377Z,101649.91
2024-02-03T22:32:40.022Z,101650.53
2024-02-03T22:35:07.093Z,101640.53
2024-02-03T22:37:33.600Z,101640.31
2024-02-03T22:40:00.109Z,101633.59
2024-02-03T22:42:26.606Z,101645.88
2024-02-03T22:44:53.054Z,101641.16
2024-02-03T22:47:19.486Z,101634.69
2024-02-03T22:49:45.969Z,101637.50
2024-02-03T22:52:12.409Z,101638.00
2024-02-03T22:54:38.849Z,101638.75
2024-02-03T22:57:05.313Z,101621.44
2024-02-03T22:59:32.220Z,101648.78
2024-02-03T23:01:58.706Z,101646.59
2024-02-03T23:04:25.271Z,101648.91
2024-02-03T23:06:51.980Z,101659.25
2024-02-03T23:09:19.949Z,101652.13
2024-02-03T23:11:46.491Z,101642.63
2024-02-03T23:14:13.169Z,101647.56
2024-02-03T23:16:39.790Z,101642.03
2024-02-03T23:19:06.772Z,101633.09
2024-02-03T23:21:33.362Z,101637.38
2024-02-03T23:24:00.589Z,101614.44
2024-02-03T23:26:27.352Z,101619.84
2024-02-03T23:28:53.916Z,101617.94
2024-02-03T23:31:20.444Z,101611.50
2024-02-03T23:33:47.497Z,101613.81
2024-02-03T23:36:15.042Z,101617.03
2024-02-03T23:38:41.561Z,101599.66
2024-02-03T23:41:07.987Z,101599.00
2024-02-03T23:43:35.187Z,101602.00
2024-02-03T23:46:01.670Z,101598.22
2024-02-03T23:48:28.326Z,101604.81
2024-02-03T23:50:55.382Z,101606.63
2024-02-03T23:53:21.826Z,101606.47
2024-02-03T23:55:48.293Z,101599.16
2024-02-03T23:58:15.039Z,101593.19
